createdAt,value
2023-03-28T00:01:02.294Z,0.70
2023-03-28T00:03:31.748Z,0.68
2023-03-28T00:06:03.283Z,0.27
2023-03-28T00:08:32.231Z,0.30
2023-03-28T00:11:06.637Z,0.50
2023-03-28T00:13:36.492Z,0.45
2023-03-28T00:16:08.228Z,0.32
2023-03-28T00:18:40.851Z,0.37
2023-03-28T00:21:29.791Z,0.40
2023-03-28T00:24:02.628Z,0.40
2023-03-28T00:26:33.050Z,0.70
2023-03-28T00:29:03.360Z,0.90
2023-03-28T00:31:35.571Z,0.50
2023-03-28T00:34:04.014Z,0.52
2023-03-28T00:36:33.402Z,0.70
2023-03-28T00:39:02.504Z,0.40
2023-03-28T00:41:33.226Z,0.60
2023-03-28T00:44:01.452Z,0.53
2023-03-28T00:46:39.432Z,0.68
2023-03-28T00:49:22.411Z,2.30
2023-03-28T00:51:57.757Z,0.85
2023-03-28T00:54:28.755Z,0.47
2023-03-28T00:56:59.519Z,0.53
2023-03-28T00:59:29.901Z,0.70
2023-03-28T01:01:57.555Z,0.55
2023-03-28T01:04:31.267Z,0.70
2023-03-28T01:06:59.486Z,0.82
2023-03-28T01:09:28.568Z,0.47
2023-03-28T01:11:58.428Z,0.50
2023-03-28T01:14:27.901Z,0.40
2023-03-28T01:16:58.938Z,0.57
2023-03-28T01:20:09.591Z,0.50
2023-03-28T01:22:56.741Z,0.40
2023-03-28T01:25:40.401Z,0.40
2023-03-28T01:28:33.207Z,0.35
2023-03-28T01:31:40.868Z,0.22
2023-03-28T01:34:43.470Z,0.45
2023-03-28T01:37:22.138Z,0.30
2023-03-28T01:40:07.362Z,0.43
2023-03-28T01:42:58.001Z,0.20
2023-03-28T01:45:57.084Z,0.50
2023-03-28T01:48:33.858Z,0.30
2023-03-28T01:51:10.687Z,0.70
2023-03-28T01:53:41.281Z,0.30
2023-03-28T01:56:19.153Z,0.50
2023-03-28T01:58:51.409Z,0.73
2023-03-28T02:01:36.801Z,0.30
2023-03-28T02:04:20.859Z,0.53
2023-03-28T02:06:50.186Z,0.47
2023-03-28T02:09:19.498Z,0.65
2023-03-28T02:11:48.329Z,0.47
2023-03-28T02:14:19.591Z,0.50
2023-03-28T02:16:50.408Z,0.50
2023-03-28T02:19:18.317Z,0.57
2023-03-28T02:21:51.666Z,0.60
2023-03-28T02:24:18.698Z,0.40
2023-03-28T02:26:47.844Z,0.43
2023-03-28T02:29:16.887Z,0.30
2023-03-28T02:31:44.221Z,0.40
2023-03-28T02:34:11.652Z,0.40
2023-03-28T02:36:47.065Z,0.40
2023-03-28T02:39:51.710Z,0.82
2023-03-28T02:42:48.557Z,0.43
2023-03-28T02:45:38.145Z,0.30
2023-03-28T02:48:25.326Z,0.55
2023-03-28T02:51:08.772Z,0.40
2023-03-28T02:53:44.571Z,0.70
2023-03-28T02:56:16.442Z,0.77
2023-03-28T02:58:49.869Z,0.68
2023-03-28T03:01:17.695Z,0.30
2023-03-28T03:03:45.789Z,0.55
2023-03-28T03:06:13.111Z,0.50
2023-03-28T03:08:40.259Z,0.47
2023-03-28T03:11:07.312Z,0.65
2023-03-28T03:13:34.674Z,0.60
2023-03-28T03:16:02.228Z,0.93
2023-03-28T03:18:29.528Z,0.55
2023-03-28T03:20:56.685Z,0.50
2023-03-28T03:23:23.703Z,0.75
2023-03-28T03:25:51.732Z,0.55
2023-03-28T03:28:18.980Z,0.70
2023-03-28T03:30:46.376Z,0.68
2023-03-28T03:33:16.889Z,0.60
2023-03-28T03:35:45.860Z,0.77
2023-03-28T03:38:13.544Z,0.63
2023-03-28T03:40:40.795Z,0.50
2023-03-28T03:43:07.822Z,0.60
2023-03-28T03:45:34.839Z,1.17
2023-03-28T03:48:02.054Z,0.93
2023-03-28T03:50:29.344Z,1.05
2023-03-28T03:52:57.598Z,0.85
2023-03-28T03:55:26.791Z,0.30
2023-03-28T03:57:53.852Z,0.70
2023-03-28T04:00:21.126Z,0.68
2023-03-28T04:02:48.773Z,0.50
2023-03-28T04:05:16.029Z,0.98
2023-03-28T04:07:43.750Z,0.82
2023-03-28T04:10:11.185Z,0.87
2023-03-28T04:12:38.318Z,0.68
2023-03-28T04:15:06.342Z,0.60
2023-03-28T04:17:35.198Z,0.77
2023-03-28T04:20:11.414Z,0.80
2023-03-28T04:22:44.992Z,0.70
2023-03-28T04:25:13.906Z,0.57
2023-03-28T04:27:46.306Z,0.88
2023-03-28T04:30:15.673Z,0.50
2023-03-28T04:32:42.726Z,0.73
2023-03-28T04:35:11.767Z,0.77
2023-03-28T04:37:39.002Z,1.77
2023-03-28T04:40:15.549Z,0.93
2023-03-28T04:42:42.683Z,1.17
2023-03-28T04:45:10.528Z,0.77
2023-03-28T04:47:39.813Z,1.30
2023-03-28T04:50:08.897Z,0.82
2023-03-28T04:52:36.396Z,0.80
2023-03-28T04:55:04.599Z,0.80
2023-03-28T04:57:31.819Z,1.20
2023-03-28T04:59:58.927Z,0.40
2023-03-28T05:02:26.157Z,0.63
2023-03-28T05:04:54.853Z,0.73
2023-03-28T05:07:21.864Z,0.45
2023-03-28T05:09:48.900Z,1.35
2023-03-28T05:12:16.021Z,0.80
2023-03-28T05:14:43.218Z,0.95
2023-03-28T05:17:10.544Z,0.70
2023-03-28T05:19:37.598Z,0.40
2023-03-28T05:22:04.724Z,0.90
2023-03-28T05:24:31.771Z,0.70
2023-03-28T05:26:58.806Z,0.60
2023-03-28T05:29:25.982Z,1.40
2023-03-28T05:31:53.063Z,1.00
2023-03-28T05:34:20.146Z,1.02
2023-03-28T05:36:47.184Z,1.10
2023-03-28T05:39:14.822Z,0.52
2023-03-28T05:41:41.843Z,0.75
2023-03-28T05:44:08.978Z,0.88
2023-03-28T05:46:36.348Z,0.77
2023-03-28T05:49:03.415Z,1.07
2023-03-28T05:51:30.619Z,0.77
2023-03-28T05:53:57.934Z,1.15
2023-03-28T05:56:25.013Z,0.60
2023-03-28T05:58:52.037Z,1.27
2023-03-28T06:01:19.149Z,0.83
2023-03-28T06:03:46.242Z,1.20
2023-03-28T06:06:13.522Z,1.05
2023-03-28T06:08:41.135Z,1.25
2023-03-28T06:11:08.176Z,1.05
2023-03-28T06:13:35.188Z,0.90
2023-03-28T06:16:02.284Z,1.20
2023-03-28T06:18:29.317Z,1.00
2023-03-28T06:20:56.384Z,1.20
2023-03-28T06:23:23.992Z,0.93
2023-03-28T06:25:51.239Z,0.87
2023-03-28T06:28:18.284Z,1.60
2023-03-28T06:30:49.681Z,1.15
2023-03-28T06:33:16.912Z,1.42
2023-03-28T06:35:44.050Z,1.65
2023-03-28T06:38:11.208Z,1.20
2023-03-28T06:40:38.276Z,1.25
2023-03-28T06:43:05.485Z,1.35
2023-03-28T06:45:32.670Z,1.17
2023-03-28T06:47:59.813Z,1.20
2023-03-28T06:50:26.996Z,1.30
2023-03-28T06:52:54.320Z,0.70
2023-03-28T06:55:22.744Z,1.50
2023-03-28T06:57:49.887Z,0.80
2023-03-28T07:00:17.921Z,1.20
2023-03-28T07:02:45.039Z,0.63
2023-03-28T07:05:12.127Z,1.60
2023-03-28T07:07:39.226Z,1.50
2023-03-28T07:10:06.989Z,1.48
2023-03-28T07:12:34.109Z,0.70
2023-03-28T07:15:01.210Z,1.20
2023-03-28T07:17:28.306Z,0.80
2023-03-28T07:19:55.556Z,1.05
2023-03-28T07:22:23.152Z,1.13
2023-03-28T07:24:50.202Z,1.45
2023-03-28T07:27:17.384Z,1.30
2023-03-28T07:29:44.577Z,0.90
2023-03-28T07:32:11.829Z,1.40
2023-03-28T07:34:38.935Z,1.55
2023-03-28T07:37:06.595Z,0.68
2023-03-28T07:39:34.552Z,1.47
2023-03-28T07:42:01.707Z,1.00
2023-03-28T07:44:28.842Z,1.38
2023-03-28T07:46:56.015Z,0.98
2023-03-28T07:49:23.090Z,1.80
2023-03-28T07:51:52.384Z,1.73
2023-03-28T07:54:19.722Z,1.15
2023-03-28T07:56:47.039Z,0.70
2023-03-28T07:59:14.790Z,1.42
2023-03-28T08:01:43.123Z,1.08
2023-03-28T08:04:11.546Z,1.30
2023-03-28T08:06:39.712Z,1.45
2023-03-28T08:09:11.191Z,1.00
2023-03-28T08:11:39.888Z,1.02
2023-03-28T08:14:10.999Z,1.02
2023-03-28T08:16:38.650Z,1.20
2023-03-28T08:19:11.437Z,1.30
2023-03-28T08:21:38.861Z,1.23
2023-03-28T08:24:07.729Z,1.05
2023-03-28T08:26:35.040Z,1.17
2023-03-28T08:29:02.364Z,1.20
2023-03-28T08:31:29.586Z,1.30
2023-03-28T08:33:57.439Z,2.15
2023-03-28T08:36:27.114Z,1.80
2023-03-28T08:39:00.134Z,1.77
2023-03-28T08:42:06.004Z,1.70
2023-03-28T08:44:53.435Z,1.50
2023-03-28T08:47:26.251Z,1.63
2023-03-28T08:49:57.643Z,1.27
2023-03-28T08:52:24.851Z,1.65
2023-03-28T08:55:17.864Z,1.60
2023-03-28T08:57:45.366Z,1.48
2023-03-28T09:00:14.210Z,1.15
2023-03-28T09:02:42.504Z,0.90
2023-03-28T09:08:04.411Z,1.00
2023-03-28T09:10:44.801Z,0.82
2023-03-28T09:13:35.784Z,0.95
2023-03-28T09:16:27.064Z,0.52
2023-03-28T09:19:21.170Z,1.45
2023-03-28T09:22:17.350Z,0.80
2023-03-28T09:25:19.938Z,0.85
2023-03-28T09:27:59.592Z,1.67
2023-03-28T09:30:33.500Z,1.02
2023-03-28T09:33:04.467Z,1.13
2023-03-28T09:35:32.382Z,1.27
2023-03-28T09:38:04.104Z,0.73
2023-03-28T09:40:33.679Z,0.98
2023-03-28T09:43:15.754Z,1.35
2023-03-28T09:45:54.144Z,1.00
2023-03-28T09:48:24.383Z,0.93
2023-03-28T09:50:52.584Z,0.70
2023-03-28T09:53:27.516Z,1.02
2023-03-28T09:56:04.229Z,0.90
2023-03-28T09:58:51.631Z,1.23
2023-03-28T10:01:26.208Z,0.80
2023-03-28T10:03:54.593Z,0.82
2023-03-28T10:06:27.723Z,1.10
2023-03-28T10:09:13.399Z,0.82
2023-03-28T10:11:59.180Z,1.10
2023-03-28T10:14:36.573Z,0.90
2023-03-28T10:17:11.761Z,0.90
2023-03-28T10:19:42.179Z,1.35
2023-03-28T10:22:15.569Z,0.50
2023-03-28T10:24:46.141Z,0.60
2023-03-28T10:27:21.179Z,0.37
2023-03-28T10:29:48.338Z,0.90
2023-03-28T10:32:28.193Z,0.60
2023-03-28T10:35:07.026Z,0.50
2023-03-28T10:37:35.472Z,1.02
2023-03-28T10:40:14.579Z,0.70
2023-03-28T10:42:43.753Z,0.90
2023-03-28T10:45:37.661Z,0.85
2023-03-28T10:48:26.832Z,0.70
2023-03-28T10:50:55.546Z,0.65
2023-03-28T10:53:37.742Z,0.53
2023-03-28T10:56:29.684Z,0.70
2023-03-28T10:59:33.886Z,0.82
2023-03-28T11:02:07.193Z,1.17
2023-03-28T11:04:52.282Z,0.93
2023-03-28T11:07:36.507Z,0.60
2023-03-28T11:10:23.762Z,0.70
2023-03-28T11:13:22.353Z,0.45
2023-03-28T11:15:57.097Z,0.65
2023-03-28T11:18:44.738Z,0.82
2023-03-28T11:21:25.337Z,0.30
2023-03-28T11:24:12.831Z,0.45
2023-03-28T11:27:12.597Z,0.60
2023-03-28T11:29:55.265Z,0.60
2023-03-28T11:32:28.317Z,0.45
2023-03-28T11:35:07.758Z,0.50
2023-03-28T11:37:45.618Z,0.40
2023-03-28T11:40:37.451Z,0.40
2023-03-28T11:43:06.395Z,0.50
2023-03-28T11:45:51.042Z,0.85
2023-03-28T11:49:14.278Z,0.90
2023-03-28T11:51:46.813Z,0.50
2023-03-28T11:54:19.257Z,0.55
2023-03-28T11:56:57.046Z,0.55
2023-03-28T11:59:43.898Z,0.43
2023-03-28T12:02:29.869Z,0.70
2023-03-28T12:05:06.188Z,0.40
2023-03-28T12:07:47.765Z,0.57
2023-03-28T12:10:20.713Z,0.52
2023-03-28T12:13:30.412Z,0.68
2023-03-28T12:16:01.576Z,0.23
2023-03-28T12:18:38.883Z,0.80
2023-03-28T12:21:13.867Z,0.52
2023-03-28T12:23:59.454Z,1.00
2023-03-28T12:26:44.991Z,0.73
2023-03-28T12:29:18.362Z,0.43
2023-03-28T12:31:53.307Z,0.70
2023-03-28T12:34:38.211Z,0.70
2023-03-28T12:37:17.464Z,0.60
2023-03-28T12:39:52.457Z,0.60
2023-03-28T12:42:21.074Z,0.60
2023-03-28T12:44:58.403Z,0.40
2023-03-28T12:47:31.557Z,0.60
2023-03-28T12:50:04.572Z,0.30
2023-03-28T12:52:33.502Z,0.93
2023-03-28T12:55:03.173Z,0.50
2023-03-28T12:57:45.357Z,0.40
2023-03-28T13:00:36.781Z,0.60
2023-03-28T13:03:05.893Z,0.55
2023-03-28T13:05:40.163Z,0.60
2023-03-28T13:08:40.995Z,0.40
2023-03-28T13:11:35.477Z,0.35
2023-03-28T13:14:17.612Z,0.70
2023-03-28T13:16:58.034Z,0.50
2023-03-28T13:19:45.862Z,1.23
2023-03-28T13:22:33.071Z,0.80
2023-03-28T13:25:21.176Z,1.00
2023-03-28T13:27:50.099Z,0.95
2023-03-28T13:30:35.722Z,0.98
2023-03-28T13:33:19.148Z,0.43
2023-03-28T13:36:09.098Z,0.30
2023-03-28T13:38:59.712Z,0.98
2023-03-28T13:41:55.402Z,0.68
2023-03-28T13:44:28.099Z,0.75
2023-03-28T13:46:55.885Z,0.98
2023-03-28T13:49:45.195Z,0.80
2023-03-28T13:52:18.604Z,0.68
2023-03-28T13:54:46.327Z,0.68
2023-03-28T13:57:16.519Z,0.30
2023-03-28T13:59:54.199Z,0.30
2023-03-28T14:02:32.034Z,0.70
2023-03-28T14:05:32.810Z,0.28
2023-03-28T14:08:25.376Z,0.50
2023-03-28T14:10:52.766Z,0.32
2023-03-28T14:13:25.757Z,0.50
2023-03-28T14:15:53.485Z,0.60
2023-03-28T14:18:41.902Z,0.60
2023-03-28T14:21:10.214Z,0.50
2023-03-28T14:23:48.607Z,0.43
2023-03-28T14:26:18.405Z,0.70
2023-03-28T14:28:46.551Z,0.67
2023-03-28T14:31:15.581Z,0.35
2023-03-28T14:33:47.443Z,0.60
2023-03-28T14:36:16.439Z,0.60
2023-03-28T14:38:43.625Z,0.93
2023-03-28T14:41:19.204Z,0.50
2023-03-28T14:43:52.191Z,0.60
2023-03-28T14:46:23.600Z,0.60
2023-03-28T14:48:53.719Z,0.50
2023-03-28T14:51:24.555Z,0.60
2023-03-28T14:53:55.977Z,0.60
2023-03-28T14:56:27.542Z,0.70
2023-03-28T14:58:59.224Z,2.53
2023-03-28T15:01:26.916Z,0.90
2023-03-28T15:03:59.820Z,0.70
2023-03-28T15:06:29.198Z,0.40
2023-03-28T15:08:59.092Z,0.50
2023-03-28T15:11:34.121Z,0.65
2023-03-28T15:14:11.601Z,0.70
2023-03-28T15:16:42.258Z,0.75
2023-03-28T15:19:28.413Z,0.80
2023-03-28T15:22:01.627Z,0.70
2023-03-28T15:24:29.222Z,0.38
2023-03-28T15:27:01.638Z,0.70
2023-03-28T15:29:32.828Z,0.77
2023-03-28T15:32:11.520Z,0.80
2023-03-28T15:34:44.865Z,0.80
2023-03-28T15:37:16.068Z,0.57
2023-03-28T15:39:43.674Z,0.68
2023-03-28T15:42:20.094Z,0.60
2023-03-28T15:44:59.044Z,0.50
2023-03-28T15:47:29.544Z,0.60
2023-03-28T15:50:03.506Z,0.63
2023-03-28T15:52:31.309Z,1.00
2023-03-28T15:55:00.152Z,0.57
2023-03-28T15:57:29.429Z,0.73
2023-03-28T15:59:58.332Z,0.40
2023-03-28T16:02:25.473Z,0.75
2023-03-28T16:04:59.569Z,0.73
2023-03-28T16:07:27.114Z,0.65
2023-03-28T16:09:54.243Z,0.87
2023-03-28T16:12:21.448Z,0.65
2023-03-28T16:14:51.082Z,0.73
2023-03-28T16:17:22.580Z,0.47
2023-03-28T16:19:49.942Z,0.40
2023-03-28T16:22:17.103Z,0.77
2023-03-28T16:24:44.167Z,0.80
2023-03-28T16:27:11.232Z,1.10
2023-03-28T16:29:38.282Z,0.70
2023-03-28T16:32:05.645Z,0.85
2023-03-28T16:34:32.738Z,0.83
2023-03-28T16:36:59.808Z,0.70
2023-03-28T16:39:27.141Z,0.90
2023-03-28T16:41:54.336Z,1.05
2023-03-28T16:44:21.447Z,0.90
2023-03-28T16:46:50.848Z,0.80
2023-03-28T16:49:18.212Z,0.55
2023-03-28T16:51:45.266Z,0.85
2023-03-28T16:54:12.326Z,0.90
2023-03-28T16:56:39.388Z,0.57
2023-03-28T16:59:08.247Z,0.70
2023-03-28T17:01:35.710Z,0.50
2023-03-28T17:04:03.989Z,0.70
2023-03-28T17:06:31.403Z,0.50
2023-03-28T17:08:58.781Z,0.45
2023-03-28T17:11:26.238Z,0.30
2023-03-28T17:13:54.582Z,0.52
2023-03-28T17:16:22.978Z,0.60
2023-03-28T17:18:50.604Z,0.45
2023-03-28T17:21:18.584Z,0.93
2023-03-28T17:23:47.901Z,0.50
2023-03-28T17:26:15.579Z,0.75
2023-03-28T17:28:43.524Z,0.70
2023-03-28T17:31:13.960Z,0.70
2023-03-28T17:33:41.465Z,0.40
2023-03-28T17:36:23.486Z,0.63
2023-03-28T17:38:52.175Z,0.55
2023-03-28T17:41:19.735Z,0.50
2023-03-28T17:43:47.259Z,0.57
2023-03-28T17:46:15.234Z,0.63
2023-03-28T17:48:42.867Z,0.57
2023-03-28T17:51:11.382Z,0.60
2023-03-28T17:53:39.554Z,0.60
2023-03-28T17:56:08.585Z,1.20
2023-03-28T17:58:37.528Z,1.13
2023-03-28T18:01:09.500Z,0.93
2023-03-28T18:03:37.337Z,0.95
2023-03-28T18:06:05.089Z,1.10
2023-03-28T18:08:32.168Z,1.60
2023-03-28T18:11:07.329Z,1.73
2023-03-28T18:13:35.868Z,1.43
2023-03-28T18:16:04.548Z,1.50
2023-03-28T18:18:32.644Z,1.65
2023-03-28T18:20:59.760Z,1.45
2023-03-28T18:23:26.887Z,1.80
2023-03-28T18:25:53.920Z,1.27
2023-03-28T18:28:24.053Z,1.70
2023-03-28T18:30:51.455Z,1.50
2023-03-28T18:33:19.465Z,1.60
2023-03-28T18:35:46.878Z,2.83
2023-03-28T18:38:14.377Z,1.43
2023-03-28T18:40:41.966Z,1.80
2023-03-28T18:43:09.807Z,2.22
2023-03-28T18:45:37.412Z,1.55
2023-03-28T18:48:04.991Z,1.80
2023-03-28T18:50:32.098Z,1.60
2023-03-28T18:52:59.115Z,2.40
2023-03-28T18:55:26.155Z,3.05
2023-03-28T18:57:53.862Z,2.75
2023-03-28T19:00:21.702Z,4.03
2023-03-28T19:02:49.904Z,5.00
2023-03-28T19:05:17.338Z,3.42
2023-03-28T19:07:44.976Z,3.47
2023-03-28T19:10:13.473Z,2.97
2023-03-28T19:12:41.224Z,2.90
2023-03-28T19:15:10.428Z,2.60
2023-03-28T19:17:40.045Z,3.60
2023-03-28T19:20:13.562Z,2.90
2023-03-28T19:22:40.852Z,2.80
2023-03-28T19:25:09.251Z,2.67
2023-03-28T19:27:38.413Z,2.33
2023-03-28T19:30:07.269Z,2.80
2023-03-28T19:32:34.617Z,2.03
2023-03-28T19:35:01.741Z,2.65
2023-03-28T19:37:28.830Z,2.42
2023-03-28T19:39:59.054Z,2.00
2023-03-28T19:42:26.242Z,2.65
2023-03-28T19:44:53.364Z,2.38
2023-03-28T19:47:20.419Z,2.40
2023-03-28T19:49:49.130Z,2.50
2023-03-28T19:52:16.277Z,2.33
2023-03-28T19:54:43.565Z,2.42
2023-03-28T19:57:10.937Z,1.83
2023-03-28T19:59:38.033Z,2.03
2023-03-28T20:02:05.113Z,1.83
2023-03-28T20:04:32.250Z,1.87
2023-03-28T20:07:00.016Z,2.90
2023-03-28T20:09:27.316Z,2.47
2023-03-28T20:11:54.412Z,2.00
2023-03-28T20:14:21.554Z,2.75
2023-03-28T20:16:48.899Z,2.00
2023-03-28T20:19:17.985Z,1.65
2023-03-28T20:21:45.135Z,2.00
2023-03-28T20:24:12.310Z,1.83
2023-03-28T20:26:39.930Z,2.30
2023-03-28T20:29:10.323Z,1.93
2023-03-28T20:31:37.608Z,2.20
2023-03-28T20:34:05.006Z,2.00
2023-03-28T20:36:32.980Z,2.20
2023-03-28T20:39:00.892Z,2.13
2023-03-28T20:41:29.716Z,1.77
2023-03-28T20:44:03.429Z,2.33
2023-03-28T20:46:32.434Z,1.90
2023-03-28T20:49:00.091Z,1.90
2023-03-28T20:51:29.617Z,2.05
2023-03-28T20:54:00.567Z,2.37
2023-03-28T20:56:30.626Z,2.20
2023-03-28T20:58:58.764Z,2.40
2023-03-28T21:01:28.475Z,2.15
2023-03-28T21:03:58.970Z,1.85
2023-03-28T21:06:33.292Z,2.10
2023-03-28T21:09:01.896Z,2.30
2023-03-28T21:11:31.518Z,2.50
2023-03-28T21:13:59.867Z,1.73
2023-03-28T21:16:28.639Z,2.15
2023-03-28T21:18:55.951Z,1.80
2023-03-28T21:21:23.261Z,2.17
2023-03-28T21:23:50.480Z,2.35
2023-03-28T21:26:19.357Z,2.25
2023-03-28T21:28:47.373Z,2.53
2023-03-28T21:31:17.124Z,2.00
2023-03-28T21:33:44.325Z,2.40
2023-03-28T21:36:14.099Z,2.83
2023-03-28T21:38:41.612Z,2.70
2023-03-28T21:41:09.504Z,3.25
2023-03-28T21:43:37.012Z,2.87
2023-03-28T21:46:05.612Z,3.15
2023-03-28T21:48:32.676Z,3.38
2023-03-28T21:51:00.594Z,4.00
2023-03-28T21:53:30.894Z,3.15
2023-03-28T21:55:59.277Z,3.00
2023-03-28T21:58:29.416Z,2.55
2023-03-28T22:00:56.768Z,3.05
2023-03-28T22:03:26.976Z,2.63
2023-03-28T22:05:54.475Z,3.35
2023-03-28T22:08:22.334Z,2.87
2023-03-28T22:10:52.627Z,2.10
2023-03-28T22:13:20.200Z,2.47
2023-03-28T22:15:47.297Z,2.33
2023-03-28T22:18:15.610Z,2.55
2023-03-28T22:20:43.616Z,2.47
2023-03-28T22:23:11.298Z,2.15
2023-03-28T22:25:38.984Z,2.35
2023-03-28T22:28:09.208Z,2.60
2023-03-28T22:30:37.826Z,2.58
2023-03-28T22:33:06.341Z,3.23
2023-03-28T22:35:34.255Z,4.05
2023-03-28T22:38:02.084Z,3.95
2023-03-28T22:40:29.518Z,4.18
2023-03-28T22:42:56.942Z,3.33
2023-03-28T22:45:24.537Z,3.10
2023-03-28T22:47:51.683Z,3.17
2023-03-28T22:50:19.165Z,3.22
2023-03-28T22:52:50.220Z,3.42
2023-03-28T22:55:17.370Z,3.55
2023-03-28T22:57:45.367Z,2.50
2023-03-28T23:00:13.853Z,2.80
2023-03-28T23:02:41.784Z,2.72
2023-03-28T23:05:09.825Z,2.90
2023-03-28T23:07:37.568Z,2.35
2023-03-28T23:10:07.749Z,2.57
2023-03-28T23:12:35.165Z,2.33
2023-03-28T23:15:02.194Z,2.10
2023-03-28T23:17:29.312Z,1.92
2023-03-28T23:19:56.611Z,2.40
2023-03-28T23:22:23.815Z,2.43
2023-03-28T23:24:51.358Z,2.30
2023-03-28T23:27:19.125Z,2.58
2023-03-28T23:29:46.162Z,2.28
2023-03-28T23:32:14.421Z,2.55
2023-03-28T23:34:41.457Z,2.67
2023-03-28T23:37:10.103Z,2.10
2023-03-28T23:39:38.305Z,2.22
2023-03-28T23:42:05.910Z,1.63
2023-03-28T23:44:34.036Z,1.80
2023-03-28T23:47:01.113Z,2.10
2023-03-28T23:49:28.168Z,2.15
2023-03-28T23:51:55.289Z,2.55
2023-03-28T23:54:23.088Z,2.08
2023-03-28T23:56:50.215Z,2.03
2023-03-28T23:59:17.486Z,1.97
